Time;durP1;ratioP1;P1;durP2;ratioP2;P2;SDS_P1;SDS_P2;PMS_P1;PMS_P2;Temp;Humidity;BMP_temperature;BMP_pressure;BME280_temperature;BME280_humidity;BME280_pressure;Samples;Min_cycle;Max_cycle;Signal;HPM_P1;HPM_P2
2023/07/02 00:00:14;;;;;;;;;10.00;9.00;;;;;17.66;72.84;98992.09;5098696;28;8948;-58
2023/07/02 00:02:42;;;;;;;;;9.00;9.00;;;;;17.66;73.40;98992.94;5099591;28;8953;-60
2023/07/02 00:05:10;;;;;;;;;7.00;7.00;;;;;17.66;72.73;98998.34;5099580;28;8818;-58
2023/07/02 00:07:38;;;;;;;;;7.40;7.40;;;;;17.65;73.07;99001.19;5098687;28;8806;-58
2023/07/02 00:10:06;;;;;;;;;6.20;6.20;;;;;17.64;72.78;98995.00;5098686;28;8806;-59
2023/07/02 00:12:34;;;;;;;;;7.80;7.80;;;;;17.65;73.03;98998.50;5099099;28;8952;-60
2023/07/02 00:15:01;;;;;;;;;9.40;9.40;;;;;17.64;73.10;98994.16;5097817;28;8818;-60
2023/07/02 00:17:29;;;;;;;;;7.40;6.00;;;;;17.64;73.23;98986.06;5098120;28;8834;-59
2023/07/02 00:19:57;;;;;;;;;7.80;6.80;;;;;17.64;73.58;98994.16;5098342;28;8826;-58
2023/07/02 00:22:25;;;;;;;;;7.00;6.60;;;;;17.63;72.87;98995.19;5097551;28;8860;-58
2023/07/02 00:24:55;;;;;;;;;6.20;6.00;;;;;17.62;73.03;98986.25;5097360;28;8826;-58
2023/07/02 00:27:23;;;;;;;;;6.00;4.40;;;;;17.62;73.55;98983.56;5097284;28;8903;-59
2023/07/02 00:29:51;;;;;;;;;7.40;5.60;;;;;17.62;73.19;98996.22;5097648;28;8826;-59
2023/07/02 00:32:20;;;;;;;;;4.80;4.80;;;;;17.60;72.90;98988.31;5091886;28;8853;-60
2023/07/02 00:34:48;;;;;;;;;6.00;4.80;;;;;17.59;73.10;98992.03;5097361;28;8826;-59
2023/07/02 00:37:16;;;;;;;;;3.80;3.60;;;;;17.59;73.36;98989.34;5097340;28;8814;-58
2023/07/02 00:39:44;;;;;;;;;5.20;5.20;;;;;17.59;73.39;98991.19;5097850;28;8830;-60
2023/07/02 00:42:12;;;;;;;;;6.60;6.60;;;;;17.58;73.44;98993.06;5082302;28;8811;-60
2023/07/02 00:44:40;;;;;;;;;7.20;6.60;;;;;17.57;73.37;98999.47;5097964;28;8834;-60
2023/07/02 00:47:08;;;;;;;;;6.20;6.20;;;;;17.58;73.20;98993.06;5097341;28;8864;-61
2023/07/02 00:49:36;;;;;;;;;6.00;6.00;;;;;17.58;73.13;99000.28;5098143;28;8837;-60
2023/07/02 00:52:04;;;;;;;;;6.80;6.40;;;;;17.57;73.43;98991.41;5095862;28;8814;-58
2023/07/02 00:54:32;;;;;;;;;4.00;4.00;;;;;17.58;73.25;98992.22;5097090;28;8841;-60
2023/07/02 00:57:03;;;;;;;;;9.40;9.00;;;;;17.58;73.31;98995.75;5097838;28;8802;-60
2023/07/02 00:59:31;;;;;;;;;9.00;9.00;;;;;17.57;73.22;98987.84;5097756;28;8814;-59
2023/07/02 01:01:58;;;;;;;;;7.00;6.20;;;;;17.56;73.63;98989.72;5096342;28;8842;-58
2023/07/02 01:04:27;;;;;;;;;10.40;9.20;;;;;17.55;73.14;98979.97;5097773;28;8830;-58
2023/07/02 01:06:57;;;;;;;;;6.60;6.00;;;;;17.54;73.42;98986.38;5096968;28;8968;-57
2023/07/02 01:09:26;;;;;;;;;6.40;6.40;;;;;17.52;73.67;98985.72;5097496;28;8814;-57
2023/07/02 01:11:54;;;;;;;;;3.20;1.00;;;;;17.52;73.71;98980.34;5096878;28;8933;-57
2023/07/02 01:14:22;;;;;;;;;4.20;3.40;;;;;17.51;73.59;98976.00;5097980;28;8815;-60
2023/07/02 01:16:50;;;;;;;;;7.20;6.20;;;;;17.50;73.59;98976.16;5097501;28;8828;-59
2023/07/02 01:19:19;;;;;;;;;5.20;4.40;;;;;17.50;73.71;98978.88;5097922;28;8827;-60
2023/07/02 01:21:47;;;;;;;;;4.40;4.40;;;;;17.50;73.14;98982.41;5096765;28;8816;-58
2023/07/02 01:24:15;;;;;;;;;6.40;5.20;;;;;17.50;73.56;98981.56;5096236;28;8827;-60
2023/07/02 01:26:43;;;;;;;;;6.40;4.80;;;;;17.49;73.72;98980.75;5097105;28;8896;-59
2023/07/02 01:29:10;;;;;;;;;9.20;9.20;;;;;17.50;73.40;98992.31;5096963;28;8818;-59
2023/07/02 01:31:38;;;;;;;;;6.60;6.20;;;;;17.49;73.41;98979.88;5097707;28;8834;-60
2023/07/02 01:34:07;;;;;;;;;7.00;6.00;;;;;17.49;73.36;98990.66;5096729;28;8913;-58
2023/07/02 01:36:35;;;;;;;;;7.00;7.00;;;;;17.48;73.71;98989.00;5096357;28;8817;-58
2023/07/02 01:39:03;;;;;;;;;9.00;8.20;;;;;17.46;73.63;98991.88;5095881;28;9525;-58
2023/07/02 01:41:31;;;;;;;;;6.00;6.00;;;;;17.45;73.46;98982.13;5096693;28;8833;-58
2023/07/02 01:43:58;;;;;;;;;6.60;6.60;;;;;17.44;73.77;98985.84;5097392;28;8842;-60
2023/07/02 01:46:26;;;;;;;;;6.20;6.00;;;;;17.42;73.68;98985.22;5096523;28;8881;-60
2023/07/02 01:48:54;;;;;;;;;7.80;7.00;;;;;17.39;73.80;98963.22;5096600;28;8844;-60
2023/07/02 01:51:21;;;;;;;;;8.80;8.60;;;;;17.33;74.02;98947.78;5096535;28;8827;-57
2023/07/02 01:53:49;;;;;;;;;9.60;9.40;;;;;17.24;73.81;98949.72;5095626;28;8857;-59
2023/07/02 01:56:17;;;;;;;;;10.40;6.20;;;;;17.16;74.52;98952.53;5096285;28;8852;-60
2023/07/02 01:58:46;;;;;;;;;9.40;8.60;;;;;17.08;74.75;98949.94;5096210;28;8836;-59
2023/07/02 02:01:14;;;;;;;;;9.20;8.20;;;;;17.00;74.68;98946.53;5096349;28;8806;-58
2023/07/02 02:03:41;;;;;;;;;4.80;3.60;;;;;16.94;75.09;98948.09;5096402;28;8969;-59
2023/07/02 02:06:09;;;;;;;;;9.00;8.00;;;;;16.90;74.68;98945.97;5097177;28;8838;-58
2023/07/02 02:08:37;;;;;;;;;10.00;9.00;;;;;16.83;75.14;98953.97;5097257;28;8842;-60
2023/07/02 02:11:05;;;;;;;;;10.20;9.20;;;;;16.78;74.99;98959.03;5096647;28;8822;-59
2023/07/02 02:13:33;;;;;;;;;10.00;7.75;;;;;16.73;75.46;98945.34;5095843;28;8810;-59
2023/07/02 02:16:01;;;;;;;;;6.20;6.00;;;;;16.71;75.32;98958.13;5096543;28;8834;-59
2023/07/02 02:18:28;;;;;;;;;8.80;7.80;;;;;16.68;75.02;98966.56;5095665;28;8821;-58
2023/07/02 02:20:57;;;;;;;;;8.40;8.40;;;;;16.67;75.53;98989.09;5095539;28;8826;-58
2023/07/02 02:23:24;;;;;;;;;7.00;4.00;;;;;16.68;75.37;98997.97;5095881;28;8838;-58
2023/07/02 02:25:52;;;;;;;;;6.00;6.00;;;;;16.67;75.26;99005.22;5095496;28;8907;-58
2023/07/02 02:28:19;;;;;;;;;9.20;8.20;;;;;16.69;74.92;99007.72;5095994;28;8864;-59
2023/07/02 02:30:47;;;;;;;;;5.60;4.80;;;;;16.72;74.95;99007.38;5095098;28;8854;-60
2023/07/02 02:33:15;;;;;;;;;7.00;7.00;;;;;16.77;74.81;99013.84;5094648;28;8811;-59
2023/07/02 02:35:43;;;;;;;;;2.60;1.40;;;;;16.80;74.40;99008.09;5095868;28;8814;-59
2023/07/02 02:38:11;;;;;;;;;6.20;6.00;;;;;16.84;74.60;99005.88;5096378;28;8830;-58
2023/07/02 02:40:38;;;;;;;;;5.60;4.40;;;;;16.84;74.69;99011.25;5095997;28;8833;-59
2023/07/02 02:43:06;;;;;;;;;6.20;6.00;;;;;16.81;74.82;99008.94;5096681;28;9685;-60
2023/07/02 02:45:34;;;;;;;;;7.80;7.40;;;;;16.80;74.79;99000.03;5095414;28;8837;-57
2023/07/02 02:48:02;;;;;;;;;4.00;4.00;;;;;16.78;74.34;99002.06;5093682;28;8830;-60
2023/07/02 02:50:30;;;;;;;;;9.00;8.20;;;;;16.75;74.16;99002.47;5094287;28;8841;-59
2023/07/02 02:52:57;;;;;;;;;4.00;3.80;;;;;16.73;74.33;99004.50;5094334;28;8860;-58
2023/07/02 02:55:26;;;;;;;;;7.50;6.75;;;;;16.72;74.37;99010.88;5095083;28;8859;-59
2023/07/02 02:57:54;;;;;;;;;6.00;4.00;;;;;16.71;74.97;99006.50;5095385;28;8798;-60
2023/07/02 03:00:22;;;;;;;;;9.00;7.00;;;;;16.71;74.79;99005.69;5095715;28;8806;-59
2023/07/02 03:02:49;;;;;;;;;6.00;4.50;;;;;16.71;74.87;99006.50;5095476;28;8868;-59
2023/07/02 03:05:17;;;;;;;;;6.00;4.40;;;;;16.72;74.86;99010.88;5095926;28;8823;-57
2023/07/02 03:07:45;;;;;;;;;9.00;6.80;;;;;16.73;74.45;99009.88;5094708;28;8848;-58
2023/07/02 03:10:12;;;;;;;;;1.50;1.50;;;;;16.73;74.54;99009.88;5095722;28;8825;-60
2023/07/02 03:12:40;;;;;;;;;6.75;6.75;;;;;16.72;74.71;99010.88;5096033;28;8822;-60
2023/07/02 03:15:09;;;;;;;;;7.50;5.50;;;;;16.74;74.36;99010.69;5095631;28;8814;-59
2023/07/02 03:17:36;;;;;;;;;8.60;7.00;;;;;16.75;74.48;99007.84;5095180;28;8823;-60
2023/07/02 03:20:04;;;;;;;;;7.00;7.00;;;;;16.76;73.98;99012.19;5095461;28;9481;-59
2023/07/02 03:22:32;;;;;;;;;6.75;6.50;;;;;16.77;74.56;99011.16;5095290;28;8826;-58
2023/07/02 03:25:01;;;;;;;;;9.00;7.00;;;;;16.80;74.43;99020.72;5096123;28;8830;-58
2023/07/02 03:27:29;;;;;;;;;9.00;7.00;;;;;16.79;74.12;99014.50;5094912;28;8842;-59
2023/07/02 03:29:56;;;;;;;;;9.50;9.00;;;;;16.80;74.28;99012.66;5095860;28;8829;-59
2023/07/02 03:32:24;;;;;;;;;8.50;7.00;;;;;16.80;73.97;99016.16;5095749;28;8845;-59
2023/07/02 03:34:52;;;;;;;;;8.00;6.50;;;;;16.80;73.85;99013.47;5095587;28;8918;-58
2023/07/02 03:37:20;;;;;;;;;9.00;9.00;;;;;16.81;74.11;99022.38;5095968;28;8838;-58
2023/07/02 03:39:48;;;;;;;;;10.00;7.00;;;;;16.82;73.75;99018.69;5095670;28;8835;-60
2023/07/02 03:42:15;;;;;;;;;9.25;7.50;;;;;16.82;73.80;99026.75;5095932;28;8815;-60
2023/07/02 03:44:43;;;;;;;;;10.00;10.00;;;;;16.82;74.00;99018.69;5095976;28;8925;-60
2023/07/02 03:47:12;;;;;;;;;11.25;10.25;;;;;16.80;73.88;99024.22;5095663;28;8863;-60
2023/07/02 03:49:40;;;;;;;;;6.50;5.50;;;;;16.81;74.04;99039.38;5095546;28;8831;-60
2023/07/02 03:52:08;;;;;;;;;9.75;9.25;;;;;16.82;73.37;99029.44;5095804;28;8838;-58
2023/07/02 03:54:38;;;;;;;;;12.75;10.50;;;;;16.83;74.10;99039.16;5095343;28;8816;-60
2023/07/02 03:57:06;;;;;;;;;11.50;10.00;;;;;16.83;73.81;99042.72;5095591;28;8816;-60
2023/07/02 03:59:34;;;;;;;;;12.75;10.50;;;;;16.85;73.52;99050.59;5095998;28;9480;-60
2023/07/02 04:02:02;;;;;;;;;12.75;11.00;;;;;16.85;73.14;99046.03;5095441;28;8810;-60
2023/07/02 04:04:29;;;;;;;;;13.00;12.75;;;;;16.86;73.47;99060.34;5095342;28;8826;-58
2023/07/02 04:06:58;;;;;;;;;14.50;13.00;;;;;16.86;73.33;99063.03;5095826;28;8837;-58
2023/07/02 04:09:25;;;;;;;;;12.25;10.50;;;;;16.86;73.09;99057.66;5094986;28;8849;-60
2023/07/02 04:11:53;;;;;;;;;12.75;10.50;;;;;16.87;73.09;99070.88;5095199;28;9546;-60
2023/07/02 04:14:21;;;;;;;;;12.50;11.50;;;;;16.87;73.50;99062.81;5095455;28;8802;-60
2023/07/02 04:16:48;;;;;;;;;12.50;12.00;;;;;16.88;72.96;99067.22;5095500;28;8846;-60
2023/07/02 04:19:16;;;;;;;;;12.25;8.75;;;;;16.90;73.33;99075.91;5095352;28;8803;-60
2023/07/02 04:21:44;;;;;;;;;19.00;12.75;;;;;16.92;73.20;99073.03;5095602;28;8819;-60
2023/07/02 04:24:12;;;;;;;;;17.50;13.50;;;;;16.93;73.41;99074.72;5095285;28;8815;-58
2023/07/02 04:26:42;;;;;;;;;13.00;12.00;;;;;16.92;73.17;99073.88;5097271;28;8816;-60
2023/07/02 04:29:30;;;;;;;;;12.00;12.00;;;;;16.92;73.31;99073.88;5099073;28;8839;-60
2023/07/02 04:31:57;;;;;;;;;16.00;14.00;;;;;16.91;72.69;99077.59;5098637;28;8826;-59
2023/07/02 04:34:25;;;;;;;;;13.00;11.00;;;;;16.91;72.75;99080.28;5098804;28;8830;-60
2023/07/02 04:36:53;;;;;;;;;19.00;16.50;;;;;16.93;72.93;99075.53;5098825;28;9499;-60
2023/07/02 04:39:21;;;;;;;;;14.75;14.00;;;;;16.98;72.72;99083.91;5098818;28;8924;-60
2023/07/02 04:41:52;;;;;;;;;15.75;14.50;;;;;17.02;72.48;99095.13;5098207;28;8802;-60
2023/07/02 04:44:21;;;;;;;;;16.00;14.00;;;;;17.01;72.63;99088.91;5098939;28;8806;-58
2023/07/02 04:46:49;;;;;;;;;17.25;15.00;;;;;17.02;72.69;99084.38;5099379;28;8869;-59
2023/07/02 04:49:17;;;;;;;;;6.75;6.75;;;;;17.02;72.98;99095.13;5098247;28;8885;-58
2023/07/02 04:51:45;;;;;;;;;17.00;15.50;;;;;17.01;72.88;99109.63;5098375;28;8834;-60
2023/07/02 04:54:12;;;;;;;;;12.25;10.50;;;;;17.00;72.78;99097.19;5081711;28;8818;-60
2023/07/02 04:56:40;;;;;;;;;21.50;19.50;;;;;16.99;72.65;99098.19;5098800;28;8826;-59
2023/07/02 04:59:07;;;;;;;;;14.00;12.75;;;;;16.97;72.81;99108.28;5098907;28;8802;-59
2023/07/02 05:01:36;;;;;;;;;19.25;17.00;;;;;16.95;72.97;99100.41;5098313;28;8952;-59
2023/07/02 05:04:03;;;;;;;;;17.75;15.75;;;;;16.94;72.62;99108.66;5098462;28;8830;-60
2023/07/02 05:06:31;;;;;;;;;21.25;16.50;;;;;16.93;72.39;99113.19;5098752;28;8976;-59
2023/07/02 05:08:59;;;;;;;;;20.50;16.50;;;;;16.91;72.56;99109.88;5097707;28;8908;-60
2023/07/02 05:11:27;;;;;;;;;18.00;15.75;;;;;16.90;72.89;99110.88;5097750;28;8795;-58
2023/07/02 05:13:55;;;;;;;;;12.50;11.00;;;;;16.93;72.86;99115.88;5097701;28;8829;-58
2023/07/02 05:16:23;;;;;;;;;17.75;16.75;;;;;16.97;72.76;99109.16;5097888;28;8842;-58
2023/07/02 05:18:50;;;;;;;;;19.00;16.75;;;;;17.00;72.84;99119.53;5098050;28;8807;-58
2023/07/02 05:21:18;;;;;;;;;16.00;15.00;;;;;17.00;72.72;99124.91;5098182;28;8816;-58
2023/07/02 05:23:46;;;;;;;;;20.00;18.25;;;;;17.01;72.79;99125.75;5097722;28;8814;-60
2023/07/02 05:26:13;;;;;;;;;17.00;15.25;;;;;17.00;72.52;99130.28;5097921;28;8848;-58
2023/07/02 05:28:41;;;;;;;;;22.50;18.50;;;;;17.01;72.41;99123.88;5097905;28;8990;-58
2023/07/02 05:31:09;;;;;;;;;12.75;10.75;;;;;17.04;72.07;99130.75;5097992;28;8818;-58
2023/07/02 05:33:37;;;;;;;;;19.50;15.75;;;;;17.05;72.12;99127.91;5098139;28;9515;-57
2023/07/02 05:36:05;;;;;;;;;22.00;21.00;;;;;17.08;72.24;99132.06;5097488;28;8815;-57
2023/07/02 05:38:33;;;;;;;;;20.50;16.00;;;;;17.09;72.12;99139.94;5097364;28;8835;-57
2023/07/02 05:41:00;;;;;;;;;13.50;13.00;;;;;17.10;72.38;99143.50;5097952;28;8838;-58
2023/07/02 05:43:28;;;;;;;;;18.50;15.50;;;;;17.15;71.99;99149.97;5098327;28;8815;-58
2023/07/02 05:45:55;;;;;;;;;18.50;17.00;;;;;17.18;72.06;99133.50;5097636;28;8830;-59
2023/07/02 05:48:23;;;;;;;;;21.75;20.50;;;;;17.20;71.77;99131.44;5097480;28;8842;-59
2023/07/02 05:50:51;;;;;;;;;24.00;16.50;;;;;17.26;71.92;99130.72;5097477;28;8858;-59
2023/07/02 05:53:19;;;;;;;;;17.25;16.00;;;;;17.34;71.93;99144.09;5097582;28;8824;-59
2023/07/02 05:55:48;;;;;;;;;23.00;18.50;;;;;17.39;71.73;99147.06;5097362;28;8819;-59
2023/07/02 05:58:15;;;;;;;;;25.00;20.75;;;;;17.42;71.35;99145.88;5097524;28;8816;-58
2023/07/02 06:00:48;;;;;;;;;13.50;11.00;;;;;17.46;71.21;99155.28;5096642;28;9572;-58
2023/07/02 06:03:20;;;;;;;;;23.50;16.50;;;;;17.52;71.13;99146.44;5097282;28;8819;-60
2023/07/02 06:05:48;;;;;;;;;17.75;15.50;;;;;17.60;70.74;99155.25;5096120;28;8992;-59
2023/07/02 06:08:17;;;;;;;;;20.50;20.00;;;;;17.67;70.78;99150.81;5097124;28;8861;-58
2023/07/02 06:10:45;;;;;;;;;19.00;18.25;;;;;17.73;70.90;99154.59;5096201;28;8891;-59
2023/07/02 06:13:13;;;;;;;;;15.00;10.00;;;;;17.77;71.02;99154.03;5095618;28;8838;-58
2023/07/02 06:15:41;;;;;;;;;21.25;19.00;;;;;17.82;70.64;99165.09;5095928;28;8842;-59
2023/07/02 06:18:08;;;;;;;;;15.50;15.00;;;;;17.80;70.61;99156.38;5096333;28;8861;-60
2023/07/02 06:20:36;;;;;;;;;22.00;18.50;;;;;17.80;70.76;99163.63;5096201;28;8821;-60
2023/07/02 06:23:04;;;;;;;;;24.80;19.00;;;;;17.83;70.92;99160.56;5096963;28;8833;-60
2023/07/02 06:25:32;;;;;;;;;22.80;19.40;;;;;17.87;70.92;99167.22;5096514;28;8837;-59
2023/07/02 06:28:00;;;;;;;;;17.60;15.00;;;;;17.92;70.52;99167.50;5091892;28;9769;-59
2023/07/02 06:30:28;;;;;;;;;16.80;15.00;;;;;17.98;70.78;99159.50;5095803;28;8933;-59
2023/07/02 06:32:55;;;;;;;;;21.20;18.80;;;;;18.03;70.38;99167.88;5096394;28;8826;-60
2023/07/02 06:35:23;;;;;;;;;15.25;14.50;;;;;18.04;69.97;99169.53;5096399;28;8825;-60
2023/07/02 06:37:52;;;;;;;;;24.00;21.00;;;;;18.03;70.53;99172.41;5096169;28;8810;-60
2023/07/02 06:40:19;;;;;;;;;15.00;15.00;;;;;18.00;70.56;99184.41;5096450;28;9834;-60
2023/07/02 06:42:47;;;;;;;;;17.00;15.20;;;;;18.02;69.94;99177.00;5096197;28;8876;-60
2023/07/02 06:45:15;;;;;;;;;18.40;17.60;;;;;18.03;70.50;99180.50;5095598;28;8944;-61
2023/07/02 06:47:43;;;;;;;;;15.80;13.00;;;;;18.07;69.93;99184.50;5096646;28;8822;-60
2023/07/02 06:50:10;;;;;;;;;14.60;12.80;;;;;18.16;69.94;99189.59;5095460;28;8826;-60
2023/07/02 06:52:38;;;;;;;;;18.60;13.80;;;;;18.29;69.40;99192.44;5095651;28;8818;-58
2023/07/02 06:55:06;;;;;;;;;16.00;14.80;;;;;18.36;69.27;99190.69;5096334;28;8937;-58
2023/07/02 06:57:33;;;;;;;;;17.60;16.20;;;;;18.43;69.54;99191.63;5095440;28;8856;-58
2023/07/02 07:00:03;;;;;;;;;6.80;5.20;;;;;18.47;69.06;99190.22;5095243;28;8822;-60
2023/07/02 07:02:31;;;;;;;;;18.60;16.00;;;;;18.49;68.86;99196.25;5095250;28;8822;-58
2023/07/02 07:04:59;;;;;;;;;15.80;13.40;;;;;18.55;68.55;99190.09;5095746;28;8826;-60
2023/07/02 07:07:27;;;;;;;;;17.20;15.20;;;;;18.63;68.64;99195.38;5089716;28;8907;-60
2023/07/02 07:09:56;;;;;;;;;13.20;12.80;;;;;18.71;68.45;99194.41;5095853;28;8826;-59
2023/07/02 07:12:24;;;;;;;;;12.60;10.80;;;;;18.77;68.10;99191.78;5096308;28;8826;-59
2023/07/02 07:14:52;;;;;;;;;14.60;13.00;;;;;18.84;67.59;99195.41;5095620;28;8821;-60
2023/07/02 07:17:20;;;;;;;;;16.40;13.00;;;;;18.96;67.76;99199.22;5095831;28;8996;-58
2023/07/02 07:19:48;;;;;;;;;15.80;13.80;;;;;19.08;67.44;99181.50;5095547;28;8922;-58
2023/07/02 07:22:16;;;;;;;;;10.80;9.60;;;;;19.19;66.96;99188.25;5095485;28;8808;-60
2023/07/02 07:24:44;;;;;;;;;13.80;11.20;;;;;19.22;66.66;99191.41;5096097;28;8855;-58
2023/07/02 07:27:11;;;;;;;;;16.00;15.00;;;;;19.28;66.52;99195.19;5095371;28;8849;-60
2023/07/02 07:29:39;;;;;;;;;12.20;9.60;;;;;19.38;66.18;99199.22;5095661;28;8829;-61
2023/07/02 07:32:07;;;;;;;;;9.00;6.20;;;;;19.51;65.88;99191.22;5095688;28;8834;-60
2023/07/02 07:34:35;;;;;;;;;15.60;14.20;;;;;19.70;65.48;99193.22;5095639;28;8857;-61
2023/07/02 07:37:03;;;;;;;;;12.60;12.60;;;;;19.81;65.39;99200.75;5095574;28;8950;-61
2023/07/02 07:39:30;;;;;;;;;6.40;5.80;;;;;19.92;64.91;99199.38;5095749;28;8808;-61
2023/07/02 07:41:58;;;;;;;;;13.00;12.40;;;;;19.93;65.12;99195.63;5095536;28;8832;-60
2023/07/02 07:44:28;;;;;;;;;12.60;9.20;;;;;19.94;65.07;99200.84;5095839;28;8827;-60
2023/07/02 07:46:56;;;;;;;;;14.40;10.00;;;;;19.91;64.72;99209.38;5095684;28;8904;-59
2023/07/02 07:49:24;;;;;;;;;10.00;9.40;;;;;19.83;64.80;99209.53;5095660;28;8838;-60
2023/07/02 07:51:52;;;;;;;;;12.40;11.20;;;;;19.82;64.63;99210.56;5095467;28;8828;-60
2023/07/02 07:54:20;;;;;;;;;9.40;9.20;;;;;19.77;64.69;99204.91;5095160;28;8811;-61
2023/07/02 07:56:48;;;;;;;;;9.80;8.80;;;;;19.77;64.60;99204.91;5094915;28;9504;-61
2023/07/02 07:59:16;;;;;;;;;9.80;9.80;;;;;19.93;64.40;99219.97;5094428;28;8933;-58
2023/07/02 08:01:44;;;;;;;;;13.80;13.00;;;;;20.10;63.65;99210.53;5098369;28;8862;-61
2023/07/02 08:04:11;;;;;;;;;13.40;12.20;;;;;20.30;63.03;99216.88;5098193;28;8830;-60
2023/07/02 08:06:40;;;;;;;;;7.60;7.00;;;;;20.45;62.39;99215.69;5097081;28;8822;-61
2023/07/02 08:09:10;;;;;;;;;13.40;13.00;;;;;20.51;62.32;99214.88;5082089;28;8815;-61
2023/07/02 08:11:38;;;;;;;;;12.20;10.40;;;;;20.51;62.53;99223.00;5098082;28;8822;-59
2023/07/02 08:14:06;;;;;;;;;18.60;15.20;;;;;20.45;62.71;99225.66;5098142;28;8829;-61
2023/07/02 08:16:33;;;;;;;;;12.60;11.20;;;;;20.35;62.42;99217.94;5097817;28;9520;-59
2023/07/02 08:19:01;;;;;;;;;11.00;10.00;;;;;20.36;62.70;99225.03;5097268;28;8826;-58
2023/07/02 08:21:29;;;;;;;;;15.40;12.20;;;;;20.41;61.96;99232.53;5098758;28;8838;-60
2023/07/02 08:23:57;;;;;;;;;17.00;15.80;;;;;20.42;61.98;99232.34;5098409;28;8822;-60
2023/07/02 08:26:25;;;;;;;;;18.40;15.40;;;;;20.34;62.29;99240.59;5097940;28;8846;-60
2023/07/02 08:28:53;;;;;;;;;15.20;11.20;;;;;20.18;62.25;99243.63;5097509;28;8822;-60
2023/07/02 08:31:21;;;;;;;;;12.80;12.20;;;;;20.01;62.68;99247.69;5097774;28;8806;-58
2023/07/02 08:33:49;;;;;;;;;16.00;13.60;;;;;19.94;63.24;99249.50;5097602;28;8906;-59
2023/07/02 08:36:17;;;;;;;;;12.60;10.60;;;;;19.95;62.49;99234.13;5097930;28;8826;-60
2023/07/02 08:38:45;;;;;;;;;17.40;15.80;;;;;19.93;62.30;99257.81;5097899;28;8858;-60
2023/07/02 08:41:13;;;;;;;;;13.40;11.80;;;;;19.93;62.72;99253.25;5098106;28;8819;-58
2023/07/02 08:43:41;;;;;;;;;15.60;13.40;;;;;19.98;62.55;99250.78;5098374;28;8849;-58
2023/07/02 08:46:08;;;;;;;;;13.00;10.00;;;;;19.99;62.41;99255.16;5097935;28;8830;-58
2023/07/02 08:48:36;;;;;;;;;10.80;10.80;;;;;19.99;62.40;99255.16;5097645;28;8833;-58
2023/07/02 08:51:04;;;;;;;;;14.60;12.60;;;;;20.04;62.58;99246.44;5097793;28;8842;-58
2023/07/02 08:53:33;;;;;;;;;8.80;7.20;;;;;20.11;61.92;99256.28;5097725;28;8842;-58
2023/07/02 08:56:01;;;;;;;;;14.20;12.20;;;;;20.12;62.12;99262.53;5097503;28;8879;-58
2023/07/02 08:58:29;;;;;;;;;12.80;11.20;;;;;20.14;62.10;99260.47;5097030;28;8826;-58
2023/07/02 09:00:57;;;;;;;;;13.00;10.20;;;;;20.16;61.43;99264.66;5097397;28;8894;-59
2023/07/02 09:03:25;;;;;;;;;12.20;11.40;;;;;20.12;62.06;99267.94;5096904;28;8813;-60
2023/07/02 09:05:53;;;;;;;;;13.80;13.80;;;;;20.05;61.79;99269.78;5097041;28;8832;-61
2023/07/02 09:08:21;;;;;;;;;17.60;15.40;;;;;20.06;61.71;99266.88;5096457;28;8840;-60
2023/07/02 09:10:50;;;;;;;;;12.40;11.80;;;;;20.21;61.73;99266.75;5095948;28;8849;-59
2023/07/02 09:13:18;;;;;;;;;16.40;13.80;;;;;20.47;60.97;99262.31;5096171;28;8833;-61
2023/07/02 09:15:46;;;;;;;;;15.20;13.40;;;;;20.70;60.27;99268.22;5096341;28;8817;-60
2023/07/02 09:18:14;;;;;;;;;14.40;12.20;;;;;20.88;59.96;99278.53;5096033;28;8918;-60
2023/07/02 09:20:42;;;;;;;;;11.00;11.00;;;;;21.01;60.12;99268.56;5096936;28;8802;-59
2023/07/02 09:23:10;;;;;;;;;10.20;9.20;;;;;21.17;59.35;99270.88;5098280;28;8850;-60
2023/07/02 09:25:39;;;;;;;;;10.20;9.60;;;;;21.28;58.96;99271.16;5098425;28;8846;-59
2023/07/02 09:28:07;;;;;;;;;18.00;16.00;;;;;21.48;58.57;99263.84;5097788;28;9769;-61
2023/07/02 09:30:35;;;;;;;;;13.00;12.00;;;;;21.65;57.81;99261.56;5096444;28;8863;-60
2023/07/02 09:33:05;;;;;;;;;17.80;15.60;;;;;21.72;57.80;99270.56;5096488;28;8949;-58
2023/07/02 09:35:34;;;;;;;;;10.00;9.20;;;;;21.78;57.90;99272.44;5096545;28;8939;-58
2023/07/02 09:38:01;;;;;;;;;10.00;8.20;;;;;21.86;56.92;99278.47;5096317;28;9790;-60
2023/07/02 09:40:30;;;;;;;;;11.60;11.00;;;;;21.87;56.97;99274.72;5096333;28;8830;-58
2023/07/02 09:42:58;;;;;;;;;8.00;7.80;;;;;21.98;56.93;99274.09;5096796;28;8833;-61
2023/07/02 09:45:27;;;;;;;;;13.60;11.60;;;;;22.04;56.14;99275.97;5096634;28;8834;-59
2023/07/02 09:47:55;;;;;;;;;8.40;8.00;;;;;22.02;56.66;99278.03;5096858;28;8854;-59
2023/07/02 09:50:24;;;;;;;;;11.80;10.80;;;;;21.91;56.48;99280.53;5095976;28;8826;-60
2023/07/02 09:52:52;;;;;;;;;5.80;5.80;;;;;21.76;57.03;99266.38;5096076;28;8818;-59
2023/07/02 09:55:21;;;;;;;;;10.20;8.60;;;;;21.65;57.29;99278.69;5096749;28;8906;-59
2023/07/02 09:57:49;;;;;;;;;10.20;7.20;;;;;21.58;57.34;99277.84;5096652;28;8829;-59
2023/07/02 10:00:17;;;;;;;;;7.00;7.00;;;;;21.65;56.32;99283.25;5096164;28;8841;-59
2023/07/02 10:02:45;;;;;;;;;14.20;11.00;;;;;21.92;56.30;99272.22;5095714;28;8849;-58
2023/07/02 10:05:13;;;;;;;;;9.40;9.20;;;;;22.15;55.52;99288.06;5095620;28;8836;-59
2023/07/02 10:07:41;;;;;;;;;10.80;9.00;;;;;22.28;55.35;99282.56;5096100;28;8818;-60
2023/07/02 10:10:09;;;;;;;;;11.00;9.20;;;;;22.25;55.06;99274.88;5096147;28;8851;-59
2023/07/02 10:12:37;;;;;;;;;14.40;13.00;;;;;22.55;54.69;99293.16;5095873;28;8826;-59
2023/07/02 10:15:05;;;;;;;;;11.40;9.00;;;;;22.92;53.68;99275.28;5096165;28;8907;-59
2023/07/02 10:17:33;;;;;;;;;8.80;8.20;;;;;23.10;52.83;99278.94;5095355;28;9649;-59
2023/07/02 10:20:05;;;;;;;;;9.40;8.60;;;;;22.92;53.30;99280.72;5095371;28;8840;-61
2023/07/02 10:22:33;;;;;;;;;11.00;8.80;;;;;22.74;53.30;99283.28;5095634;28;8802;-60
2023/07/02 10:25:00;;;;;;;;;11.60;11.40;;;;;22.78;53.49;99288.06;5093960;28;8902;-59
2023/07/02 10:27:28;;;;;;;;;5.80;5.20;;;;;22.88;53.75;99284.88;5095193;28;8837;-59
2023/07/02 10:29:56;;;;;;;;;8.60;8.60;;;;;23.19;52.89;99269.50;5095708;28;8907;-60
2023/07/02 10:32:24;;;;;;;;;11.60;10.20;;;;;23.22;52.38;99276.38;5095268;28;8841;-59
2023/07/02 10:34:53;;;;;;;;;12.40;11.40;;;;;23.62;51.70;99275.88;5094958;28;8802;-60
2023/07/02 10:37:21;;;;;;;;;12.00;9.00;;;;;23.59;51.68;99281.75;5095574;28;8822;-58
2023/07/02 10:39:49;;;;;;;;;15.60;12.80;;;;;23.31;51.90;99275.88;5095241;28;8810;-60
2023/07/02 10:42:17;;;;;;;;;11.20;10.00;;;;;22.99;52.97;99281.50;5095773;28;8834;-60
2023/07/02 10:44:45;;;;;;;;;13.20;12.20;;;;;22.74;53.54;99277.84;5094645;28;8861;-59
2023/07/02 10:47:13;;;;;;;;;9.00;8.20;;;;;22.55;53.41;99278.78;5095731;28;8834;-60
2023/07/02 10:49:41;;;;;;;;;11.20;9.20;;;;;22.52;53.95;99282.75;5095516;28;8810;-61
2023/07/02 10:52:09;;;;;;;;;8.60;7.60;;;;;22.49;54.02;99285.06;5095504;28;8904;-58
2023/07/02 10:54:37;;;;;;;;;13.00;12.00;;;;;22.46;53.62;99282.78;5094675;28;8923;-61
2023/07/02 10:57:05;;;;;;;;;16.00;12.40;;;;;22.63;53.62;99289.41;5095057;28;9495;-59
2023/07/02 10:59:35;;;;;;;;;4.00;3.20;;;;;23.21;52.38;99282.88;5094754;28;8802;-61
2023/07/02 11:02:03;;;;;;;;;13.20;12.00;;;;;23.68;51.46;99276.88;5094378;28;8830;-58
2023/07/02 11:04:31;;;;;;;;;14.60;12.60;;;;;23.74;51.26;99281.44;5094158;28;8858;-59
2023/07/02 11:07:00;;;;;;;;;15.00;15.00;;;;;23.36;51.96;99275.25;5094601;28;8814;-59
2023/07/02 11:09:28;;;;;;;;;8.80;7.60;;;;;22.83;52.51;99288.25;5093990;28;9499;-59
2023/07/02 11:11:56;;;;;;;;;14.60;12.80;;;;;22.39;54.24;99301.75;5094739;28;8841;-62
2023/07/02 11:14:24;;;;;;;;;8.80;8.80;;;;;21.99;54.43;99297.44;5094528;28;8964;-61
2023/07/02 11:16:52;;;;;;;;;11.80;11.00;;;;;21.72;55.39;99305.81;5074787;28;8848;-59
2023/07/02 11:19:21;;;;;;;;;10.20;9.80;;;;;21.47;55.39;99315.53;5094740;28;8810;-60
2023/07/02 11:21:49;;;;;;;;;12.20;10.40;;;;;21.34;55.69;99320.94;5095131;28;8826;-59
2023/07/02 11:24:17;;;;;;;;;14.80;14.00;;;;;21.38;55.42;99316.78;5095449;28;8828;-60
2023/07/02 11:26:44;;;;;;;;;14.80;14.20;;;;;21.65;55.23;99323.91;5095237;28;8963;-59
2023/07/02 11:29:12;;;;;;;;;11.80;11.20;;;;;22.55;53.09;99303.22;5095075;28;8827;-61
2023/07/02 11:31:41;;;;;;;;;14.40;14.00;;;;;23.32;51.59;99303.91;5095055;28;8896;-58
2023/07/02 11:34:09;;;;;;;;;16.80;14.20;;;;;23.69;51.13;99301.16;5095350;28;8838;-61